sensor_id;sensor_type;location;lat;lon;timestamp;P1;durP1;ratioP1;P2;durP2;ratioP2
21663;SDS011;10993;52.510;13.456;2022-09-09T00:00:44;12.30;;;9.20;;
21663;SDS011;10993;52.510;13.456;2022-09-09T00:05:51;12.48;;;9.35;;
21663;SDS011;10993;52.510;13.456;2022-09-09T00:10:59;16.58;;;11.27;;
21663;SDS011;10993;52.510;13.456;2022-09-09T00:16:07;14.43;;;9.85;;
21663;SDS011;10993;52.510;13.456;2022-09-09T00:21:17;16.25;;;10.63;;
21663;SDS011;10993;52.510;13.456;2022-09-09T00:26:19;14.77;;;10.52;;
21663;SDS011;10993;52.510;13.456;2022-09-09T00:31:30;14.52;;;10.57;;
21663;SDS011;10993;52.510;13.456;2022-09-09T00:36:33;14.75;;;9.55;;
21663;SDS011;10993;52.510;13.456;2022-09-09T00:41:41;14.25;;;10.68;;
21663;SDS011;10993;52.510;13.456;2022-09-09T00:46:53;17.45;;;11.30;;
21663;SDS011;10993;52.510;13.456;2022-09-09T00:52:08;13.63;;;9.90;;
21663;SDS011;10993;52.510;13.456;2022-09-09T00:57:23;12.57;;;9.48;;
21663;SDS011;10993;52.510;13.456;2022-09-09T01:02:28;12.85;;;9.52;;
21663;SDS011;10993;52.510;13.456;2022-09-09T01:07:33;13.80;;;10.10;;
21663;SDS011;10993;52.510;13.456;2022-09-09T01:12:35;12.80;;;9.45;;
21663;SDS011;10993;52.510;13.456;2022-09-09T01:17:48;12.75;;;9.15;;
21663;SDS011;10993;52.510;13.456;2022-09-09T01:23:00;11.77;;;8.27;;
21663;SDS011;10993;52.510;13.456;2022-09-09T01:28:22;12.10;;;8.35;;
21663;SDS011;10993;52.510;13.456;2022-09-09T01:33:27;13.27;;;8.18;;
21663;SDS011;10993;52.510;13.456;2022-09-09T01:38:27;11.00;;;8.00;;
21663;SDS011;10993;52.510;13.456;2022-09-09T01:43:30;12.40;;;8.45;;
21663;SDS011;10993;52.510;13.456;2022-09-09T01:48:31;10.63;;;7.40;;
21663;SDS011;10993;52.510;13.456;2022-09-09T01:53:32;10.75;;;7.70;;
21663;SDS011;10993;52.510;13.456;2022-09-09T01:58:37;10.63;;;8.48;;
21663;SDS011;10993;52.510;13.456;2022-09-09T02:03:49;12.55;;;7.90;;
21663;SDS011;10993;52.510;13.456;2022-09-09T02:08:55;13.30;;;8.90;;
21663;SDS011;10993;52.510;13.456;2022-09-09T02:13:59;11.65;;;8.88;;
21663;SDS011;10993;52.510;13.456;2022-09-09T02:19:02;11.65;;;8.63;;
21663;SDS011;10993;52.510;13.456;2022-09-09T02:24:08;15.25;;;8.25;;
21663;SDS011;10993;52.510;13.456;2022-09-09T02:29:13;15.02;;;8.52;;
21663;SDS011;10993;52.510;13.456;2022-09-09T02:34:18;14.07;;;8.95;;
21663;SDS011;10993;52.510;13.456;2022-09-09T02:39:24;10.98;;;8.45;;
21663;SDS011;10993;52.510;13.456;2022-09-09T02:44:25;14.27;;;8.80;;
21663;SDS011;10993;52.510;13.456;2022-09-09T02:49:27;11.02;;;8.00;;
21663;SDS011;10993;52.510;13.456;2022-09-09T02:54:36;11.50;;;7.07;;
21663;SDS011;10993;52.510;13.456;2022-09-09T02:59:40;10.85;;;7.38;;
21663;SDS011;10993;52.510;13.456;2022-09-09T03:04:41;10.57;;;7.47;;
21663;SDS011;10993;52.510;13.456;2022-09-09T03:09:45;13.10;;;7.30;;
21663;SDS011;10993;52.510;13.456;2022-09-09T03:14:47;12.90;;;7.47;;
21663;SDS011;10993;52.510;13.456;2022-09-09T03:19:47;12.57;;;7.93;;
21663;SDS011;10993;52.510;13.456;2022-09-09T03:24:49;14.57;;;8.65;;
21663;SDS011;10993;52.510;13.456;2022-09-09T03:29:52;12.02;;;7.55;;
21663;SDS011;10993;52.510;13.456;2022-09-09T03:34:52;11.02;;;7.07;;
21663;SDS011;10993;52.510;13.456;2022-09-09T03:39:52;15.00;;;7.85;;
21663;SDS011;10993;52.510;13.456;2022-09-09T03:44:55;13.82;;;7.35;;
21663;SDS011;10993;52.510;13.456;2022-09-09T03:49:57;12.35;;;7.45;;
21663;SDS011;10993;52.510;13.456;2022-09-09T03:54:58;9.13;;;6.78;;
21663;SDS011;10993;52.510;13.456;2022-09-09T03:59:59;13.75;;;7.03;;
21663;SDS011;10993;52.510;13.456;2022-09-09T04:05:01;8.48;;;6.70;;
21663;SDS011;10993;52.510;13.456;2022-09-09T04:10:01;11.32;;;7.10;;
21663;SDS011;10993;52.510;13.456;2022-09-09T04:15:03;12.10;;;7.30;;
21663;SDS011;10993;52.510;13.456;2022-09-09T04:20:05;12.32;;;7.10;;
21663;SDS011;10993;52.510;13.456;2022-09-09T04:25:07;13.00;;;6.75;;
21663;SDS011;10993;52.510;13.456;2022-09-09T04:30:10;11.23;;;7.45;;
21663;SDS011;10993;52.510;13.456;2022-09-09T04:35:12;15.68;;;8.25;;
21663;SDS011;10993;52.510;13.456;2022-09-09T04:40:12;13.60;;;8.57;;
21663;SDS011;10993;52.510;13.456;2022-09-09T04:45:14;13.18;;;7.93;;
21663;SDS011;10993;52.510;13.456;2022-09-09T04:50:14;10.63;;;7.38;;
21663;SDS011;10993;52.510;13.456;2022-09-09T04:55:15;12.57;;;7.90;;
21663;SDS011;10993;52.510;13.456;2022-09-09T05:00:17;16.70;;;9.90;;
21663;SDS011;10993;52.510;13.456;2022-09-09T05:05:19;21.60;;;12.02;;
21663;SDS011;10993;52.510;13.456;2022-09-09T05:10:19;20.17;;;11.35;;
21663;SDS011;10993;52.510;13.456;2022-09-09T05:15:21;19.05;;;10.60;;
21663;SDS011;10993;52.510;13.456;2022-09-09T05:20:21;14.27;;;6.78;;
21663;SDS011;10993;52.510;13.456;2022-09-09T05:25:22;8.68;;;5.60;;
21663;SDS011;10993;52.510;13.456;2022-09-09T05:30:26;6.72;;;4.60;;
21663;SDS011;10993;52.510;13.456;2022-09-09T05:35:26;6.15;;;3.75;;
21663;SDS011;10993;52.510;13.456;2022-09-09T05:40:27;5.57;;;3.28;;
21663;SDS011;10993;52.510;13.456;2022-09-09T05:45:28;9.50;;;3.13;;
21663;SDS011;10993;52.510;13.456;2022-09-09T05:50:29;5.78;;;2.47;;
21663;SDS011;10993;52.510;13.456;2022-09-09T05:55:29;7.85;;;2.33;;
21663;SDS011;10993;52.510;13.456;2022-09-09T06:00:31;5.40;;;2.50;;
21663;SDS011;10993;52.510;13.456;2022-09-09T06:05:31;7.72;;;2.30;;
21663;SDS011;10993;52.510;13.456;2022-09-09T06:10:34;5.22;;;1.80;;
21663;SDS011;10993;52.510;13.456;2022-09-09T06:15:36;3.65;;;1.52;;
21663;SDS011;10993;52.510;13.456;2022-09-09T06:20:36;4.78;;;2.10;;
21663;SDS011;10993;52.510;13.456;2022-09-09T06:25:37;4.68;;;1.33;;
21663;SDS011;10993;52.510;13.456;2022-09-09T06:30:42;3.03;;;1.40;;
21663;SDS011;10993;52.510;13.456;2022-09-09T06:35:42;3.28;;;1.67;;
21663;SDS011;10993;52.510;13.456;2022-09-09T06:40:52;4.30;;;1.77;;
21663;SDS011;10993;52.510;13.456;2022-09-09T06:45:56;4.32;;;1.90;;
21663;SDS011;10993;52.510;13.456;2022-09-09T06:51:01;4.30;;;1.80;;
21663;SDS011;10993;52.510;13.456;2022-09-09T06:56:16;3.88;;;1.90;;
21663;SDS011;10993;52.510;13.456;2022-09-09T07:01:20;4.90;;;1.20;;
21663;SDS011;10993;52.510;13.456;2022-09-09T07:06:23;5.88;;;2.30;;
21663;SDS011;10993;52.510;13.456;2022-09-09T07:11:26;2.17;;;1.10;;
21663;SDS011;10993;52.510;13.456;2022-09-09T07:16:29;2.97;;;1.45;;
21663;SDS011;10993;52.510;13.456;2022-09-09T07:21:33;6.78;;;1.70;;
21663;SDS011;10993;52.510;13.456;2022-09-09T07:26:34;4.28;;;1.40;;
21663;SDS011;10993;52.510;13.456;2022-09-09T07:31:36;6.43;;;1.63;;
21663;SDS011;10993;52.510;13.456;2022-09-09T07:36:39;3.85;;;1.60;;
21663;SDS011;10993;52.510;13.456;2022-09-09T07:41:42;2.90;;;1.15;;
21663;SDS011;10993;52.510;13.456;2022-09-09T07:46:45;4.88;;;1.20;;
21663;SDS011;10993;52.510;13.456;2022-09-09T07:51:46;4.25;;;1.25;;
21663;SDS011;10993;52.510;13.456;2022-09-09T07:56:48;3.22;;;1.08;;
21663;SDS011;10993;52.510;13.456;2022-09-09T08:01:51;5.40;;;1.10;;
21663;SDS011;10993;52.510;13.456;2022-09-09T08:06:55;5.82;;;1.52;;
21663;SDS011;10993;52.510;13.456;2022-09-09T08:11:57;5.78;;;2.65;;
21663;SDS011;10993;52.510;13.456;2022-09-09T08:16:59;4.90;;;2.80;;
21663;SDS011;10993;52.510;13.456;2022-09-09T08:22:00;4.30;;;1.25;;
21663;SDS011;10993;52.510;13.456;2022-09-09T08:27:01;4.20;;;1.50;;
21663;SDS011;10993;52.510;13.456;2022-09-09T08:32:03;5.65;;;2.95;;
21663;SDS011;10993;52.510;13.456;2022-09-09T08:37:04;4.75;;;1.30;;
21663;SDS011;10993;52.510;13.456;2022-09-09T08:42:08;6.10;;;1.73;;
21663;SDS011;10993;52.510;13.456;2022-09-09T08:47:24;3.47;;;1.23;;
21663;SDS011;10993;52.510;13.456;2022-09-09T08:52:36;4.20;;;1.13;;
21663;SDS011;10993;52.510;13.456;2022-09-09T08:57:39;3.30;;;1.17;;
21663;SDS011;10993;52.510;13.456;2022-09-09T09:02:42;5.20;;;1.20;;
21663;SDS011;10993;52.510;13.456;2022-09-09T09:07:52;9.15;;;3.10;;
21663;SDS011;10993;52.510;13.456;2022-09-09T09:13:00;5.75;;;1.70;;
21663;SDS011;10993;52.510;13.456;2022-09-09T09:18:03;4.20;;;1.40;;
21663;SDS011;10993;52.510;13.456;2022-09-09T09:23:04;2.47;;;1.30;;
21663;SDS011;10993;52.510;13.456;2022-09-09T09:28:10;7.32;;;1.50;;
21663;SDS011;10993;52.510;13.456;2022-09-09T09:33:20;3.22;;;1.00;;
21663;SDS011;10993;52.510;13.456;2022-09-09T09:38:25;3.58;;;1.23;;
21663;SDS011;10993;52.510;13.456;2022-09-09T09:43:28;4.68;;;0.98;;
21663;SDS011;10993;52.510;13.456;2022-09-09T09:48:31;3.00;;;0.90;;
21663;SDS011;10993;52.510;13.456;2022-09-09T09:53:32;6.45;;;1.05;;
21663;SDS011;10993;52.510;13.456;2022-09-09T09:58:47;5.70;;;1.83;;
21663;SDS011;10993;52.510;13.456;2022-09-09T10:03:52;3.92;;;1.17;;
21663;SDS011;10993;52.510;13.456;2022-09-09T10:08:53;3.75;;;1.42;;
21663;SDS011;10993;52.510;13.456;2022-09-09T10:13:55;2.60;;;0.97;;
21663;SDS011;10993;52.510;13.456;2022-09-09T10:19:08;4.75;;;0.82;;
21663;SDS011;10993;52.510;13.456;2022-09-09T10:24:18;5.47;;;1.63;;
21663;SDS011;10993;52.510;13.456;2022-09-09T10:29:45;10.23;;;1.58;;
21663;SDS011;10993;52.510;13.456;2022-09-09T10:35:02;4.20;;;1.08;;
21663;SDS011;10993;52.510;13.456;2022-09-09T10:40:20;6.45;;;1.40;;
21663;SDS011;10993;52.510;13.456;2022-09-09T10:45:27;3.83;;;1.20;;
21663;SDS011;10993;52.510;13.456;2022-09-09T10:50:40;7.43;;;2.63;;
21663;SDS011;10993;52.510;13.456;2022-09-09T10:55:48;7.07;;;1.50;;
21663;SDS011;10993;52.510;13.456;2022-09-09T11:00:54;4.50;;;0.98;;
21663;SDS011;10993;52.510;13.456;2022-09-09T11:06:04;3.88;;;0.80;;
21663;SDS011;10993;52.510;13.456;2022-09-09T11:11:06;7.30;;;1.15;;
21663;SDS011;10993;52.510;13.456;2022-09-09T11:16:15;5.90;;;1.00;;
21663;SDS011;10993;52.510;13.456;2022-09-09T11:21:25;3.40;;;0.85;;
21663;SDS011;10993;52.510;13.456;2022-09-09T11:26:31;3.67;;;1.13;;
21663;SDS011;10993;52.510;13.456;2022-09-09T11:31:40;3.47;;;0.88;;
21663;SDS011;10993;52.510;13.456;2022-09-09T11:36:52;3.17;;;0.95;;
21663;SDS011;10993;52.510;13.456;2022-09-09T11:42:05;5.60;;;1.05;;
21663;SDS011;10993;52.510;13.456;2022-09-09T11:47:15;2.35;;;0.73;;
21663;SDS011;10993;52.510;13.456;2022-09-09T11:52:22;4.32;;;1.05;;
21663;SDS011;10993;52.510;13.456;2022-09-09T11:57:26;4.13;;;0.70;;
21663;SDS011;10993;52.510;13.456;2022-09-09T12:02:34;1.48;;;0.60;;
21663;SDS011;10993;52.510;13.456;2022-09-09T12:07:38;4.63;;;0.90;;
21663;SDS011;10993;52.510;13.456;2022-09-09T12:12:42;3.85;;;0.80;;
21663;SDS011;10993;52.510;13.456;2022-09-09T12:17:43;3.22;;;0.70;;
21663;SDS011;10993;52.510;13.456;2022-09-09T12:22:53;4.18;;;0.70;;
21663;SDS011;10993;52.510;13.456;2022-09-09T12:28:04;3.80;;;0.80;;
21663;SDS011;10993;52.510;13.456;2022-09-09T12:33:10;2.10;;;0.90;;
21663;SDS011;10993;52.510;13.456;2022-09-09T12:38:14;3.10;;;0.90;;
21663;SDS011;10993;52.510;13.456;2022-09-09T12:43:21;2.40;;;0.90;;
21663;SDS011;10993;52.510;13.456;2022-09-09T12:48:24;4.13;;;0.70;;
21663;SDS011;10993;52.510;13.456;2022-09-09T12:53:30;2.47;;;0.60;;
21663;SDS011;10993;52.510;13.456;2022-09-09T12:58:35;3.35;;;0.70;;
21663;SDS011;10993;52.510;13.456;2022-09-09T13:03:42;10.15;;;5.20;;
21663;SDS011;10993;52.510;13.456;2022-09-09T13:08:44;3.45;;;0.93;;
21663;SDS011;10993;52.510;13.456;2022-09-09T13:13:50;2.40;;;0.68;;
21663;SDS011;10993;52.510;13.456;2022-09-09T13:18:52;11.85;;;1.02;;
21663;SDS011;10993;52.510;13.456;2022-09-09T13:23:54;4.47;;;1.00;;
21663;SDS011;10993;52.510;13.456;2022-09-09T13:28:54;5.53;;;2.35;;
21663;SDS011;10993;52.510;13.456;2022-09-09T13:34:10;3.80;;;1.63;;
21663;SDS011;10993;52.510;13.456;2022-09-09T13:39:15;3.92;;;1.00;;
21663;SDS011;10993;52.510;13.456;2022-09-09T13:44:19;5.65;;;0.90;;
21663;SDS011;10993;52.510;13.456;2022-09-09T13:49:22;2.45;;;0.90;;
21663;SDS011;10993;52.510;13.456;2022-09-09T13:54:25;4.00;;;1.48;;
21663;SDS011;10993;52.510;13.456;2022-09-09T13:59:25;3.92;;;0.80;;
21663;SDS011;10993;52.510;13.456;2022-09-09T14:04:25;3.50;;;1.50;;
21663;SDS011;10993;52.510;13.456;2022-09-09T14:09:27;2.43;;;1.00;;
21663;SDS011;10993;52.510;13.456;2022-09-09T14:14:28;3.20;;;0.80;;
21663;SDS011;10993;52.510;13.456;2022-09-09T14:19:28;7.38;;;1.00;;
21663;SDS011;10993;52.510;13.456;2022-09-09T14:24:30;5.75;;;1.48;;
21663;SDS011;10993;52.510;13.456;2022-09-09T14:29:30;1.98;;;0.73;;
21663;SDS011;10993;52.510;13.456;2022-09-09T14:34:31;4.93;;;1.27;;
21663;SDS011;10993;52.510;13.456;2022-09-09T14:39:36;2.72;;;0.60;;
21663;SDS011;10993;52.510;13.456;2022-09-09T14:44:36;3.60;;;0.80;;
21663;SDS011;10993;52.510;13.456;2022-09-09T14:49:38;2.50;;;0.65;;
21663;SDS011;10993;52.510;13.456;2022-09-09T14:54:40;4.00;;;1.08;;
21663;SDS011;10993;52.510;13.456;2022-09-09T14:59:40;7.60;;;2.40;;
21663;SDS011;10993;52.510;13.456;2022-09-09T15:04:40;3.07;;;1.30;;
21663;SDS011;10993;52.510;13.456;2022-09-09T15:09:42;5.10;;;1.80;;
21663;SDS011;10993;52.510;13.456;2022-09-09T15:14:42;2.75;;;1.20;;
21663;SDS011;10993;52.510;13.456;2022-09-09T15:19:43;3.17;;;1.20;;
21663;SDS011;10993;52.510;13.456;2022-09-09T15:24:44;2.38;;;0.70;;
21663;SDS011;10993;52.510;13.456;2022-09-09T15:29:45;4.07;;;1.10;;
21663;SDS011;10993;52.510;13.456;2022-09-09T15:34:46;2.20;;;0.60;;
21663;SDS011;10993;52.510;13.456;2022-09-09T15:39:48;1.85;;;0.70;;
21663;SDS011;10993;52.510;13.456;2022-09-09T15:44:49;3.90;;;1.20;;
21663;SDS011;10993;52.510;13.456;2022-09-09T15:49:49;2.30;;;0.70;;
21663;SDS011;10993;52.510;13.456;2022-09-09T15:54:51;3.13;;;0.82;;
21663;SDS011;10993;52.510;13.456;2022-09-09T15:59:52;2.70;;;0.63;;
21663;SDS011;10993;52.510;13.456;2022-09-09T16:04:52;4.60;;;0.83;;
21663;SDS011;10993;52.510;13.456;2022-09-09T16:09:53;3.37;;;0.80;;
21663;SDS011;10993;52.510;13.456;2022-09-09T16:14:54;3.22;;;0.77;;
21663;SDS011;10993;52.510;13.456;2022-09-09T16:19:54;3.28;;;1.10;;
21663;SDS011;10993;52.510;13.456;2022-09-09T16:24:56;2.87;;;0.87;;
21663;SDS011;10993;52.510;13.456;2022-09-09T16:29:56;3.30;;;1.02;;
21663;SDS011;10993;52.510;13.456;2022-09-09T16:34:57;2.85;;;1.08;;
21663;SDS011;10993;52.510;13.456;2022-09-09T16:39:58;4.87;;;0.90;;
21663;SDS011;10993;52.510;13.456;2022-09-09T16:44:59;4.13;;;0.85;;
21663;SDS011;10993;52.510;13.456;2022-09-09T16:49:59;4.15;;;1.10;;
21663;SDS011;10993;52.510;13.456;2022-09-09T16:55:01;4.65;;;0.82;;
21663;SDS011;10993;52.510;13.456;2022-09-09T17:00:02;2.50;;;1.17;;
21663;SDS011;10993;52.510;13.456;2022-09-09T17:05:05;4.13;;;1.48;;
21663;SDS011;10993;52.510;13.456;2022-09-09T17:10:08;11.73;;;5.13;;
21663;SDS011;10993;52.510;13.456;2022-09-09T17:15:09;7.07;;;1.88;;
21663;SDS011;10993;52.510;13.456;2022-09-09T17:20:10;10.45;;;2.10;;
21663;SDS011;10993;52.510;13.456;2022-09-09T17:25:12;2.45;;;1.13;;
21663;SDS011;10993;52.510;13.456;2022-09-09T17:30:12;3.30;;;1.10;;
21663;SDS011;10993;52.510;13.456;2022-09-09T17:35:13;3.50;;;1.30;;
21663;SDS011;10993;52.510;13.456;2022-09-09T17:40:15;3.63;;;0.93;;
21663;SDS011;10993;52.510;13.456;2022-09-09T17:45:15;3.63;;;1.42;;
21663;SDS011;10993;52.510;13.456;2022-09-09T17:50:16;3.17;;;1.08;;
21663;SDS011;10993;52.510;13.456;2022-09-09T17:55:19;4.55;;;1.70;;
21663;SDS011;10993;52.510;13.456;2022-09-09T18:00:21;6.90;;;2.05;;
21663;SDS011;10993;52.510;13.456;2022-09-09T18:05:21;3.67;;;1.33;;
21663;SDS011;10993;52.510;13.456;2022-09-09T18:10:23;3.67;;;1.33;;
21663;SDS011;10993;52.510;13.456;2022-09-09T18:15:23;2.42;;;1.33;;
21663;SDS011;10993;52.510;13.456;2022-09-09T18:20:24;6.07;;;1.20;;
21663;SDS011;10993;52.510;13.456;2022-09-09T18:25:26;3.95;;;1.30;;
21663;SDS011;10993;52.510;13.456;2022-09-09T18:30:26;5.00;;;1.40;;
21663;SDS011;10993;52.510;13.456;2022-09-09T18:35:26;3.65;;;1.80;;
21663;SDS011;10993;52.510;13.456;2022-09-09T18:40:30;5.95;;;1.90;;
21663;SDS011;10993;52.510;13.456;2022-09-09T18:45:33;7.00;;;2.90;;
21663;SDS011;10993;52.510;13.456;2022-09-09T18:50:34;3.92;;;1.67;;
21663;SDS011;10993;52.510;13.456;2022-09-09T18:55:36;3.80;;;1.55;;
21663;SDS011;10993;52.510;13.456;2022-09-09T19:00:36;6.35;;;1.98;;
21663;SDS011;10993;52.510;13.456;2022-09-09T19:05:37;5.50;;;3.25;;
21663;SDS011;10993;52.510;13.456;2022-09-09T19:10:38;3.83;;;2.08;;
21663;SDS011;10993;52.510;13.456;2022-09-09T19:15:39;8.25;;;5.10;;
21663;SDS011;10993;52.510;13.456;2022-09-09T19:20:39;5.45;;;1.58;;
21663;SDS011;10993;52.510;13.456;2022-09-09T19:25:41;3.63;;;1.67;;
21663;SDS011;10993;52.510;13.456;2022-09-09T19:30:42;8.25;;;4.50;;
21663;SDS011;10993;52.510;13.456;2022-09-09T19:35:55;4.25;;;1.73;;
21663;SDS011;10993;52.510;13.456;2022-09-09T19:41:02;3.75;;;1.30;;
21663;SDS011;10993;52.510;13.456;2022-09-09T19:46:05;4.63;;;2.03;;
21663;SDS011;10993;52.510;13.456;2022-09-09T19:51:08;6.05;;;2.00;;
21663;SDS011;10993;52.510;13.456;2022-09-09T19:56:12;4.72;;;2.05;;
21663;SDS011;10993;52.510;13.456;2022-09-09T20:01:12;4.63;;;1.75;;
21663;SDS011;10993;52.510;13.456;2022-09-09T20:06:15;4.20;;;2.17;;
21663;SDS011;10993;52.510;13.456;2022-09-09T20:11:18;8.13;;;2.15;;
21663;SDS011;10993;52.510;13.456;2022-09-09T20:16:20;5.03;;;2.17;;
21663;SDS011;10993;52.510;13.456;2022-09-09T20:21:22;6.70;;;1.70;;
21663;SDS011;10993;52.510;13.456;2022-09-09T20:26:26;3.88;;;1.30;;
21663;SDS011;10993;52.510;13.456;2022-09-09T20:31:29;6.60;;;1.90;;
21663;SDS011;10993;52.510;13.456;2022-09-09T20:36:32;6.40;;;1.50;;
21663;SDS011;10993;52.510;13.456;2022-09-09T20:41:36;5.03;;;1.20;;
21663;SDS011;10993;52.510;13.456;2022-09-09T20:46:38;4.05;;;1.67;;
21663;SDS011;10993;52.510;13.456;2022-09-09T20:51:40;3.85;;;1.40;;
21663;SDS011;10993;52.510;13.456;2022-09-09T20:56:42;5.97;;;3.00;;
21663;SDS011;10993;52.510;13.456;2022-09-09T21:01:44;9.35;;;4.10;;
21663;SDS011;10993;52.510;13.456;2022-09-09T21:06:46;5.30;;;2.63;;
21663;SDS011;10993;52.510;13.456;2022-09-09T21:11:50;5.75;;;2.97;;
21663;SDS011;10993;52.510;13.456;2022-09-09T21:16:52;7.70;;;3.08;;
21663;SDS011;10993;52.510;13.456;2022-09-09T21:21:53;5.85;;;1.88;;
21663;SDS011;10993;52.510;13.456;2022-09-09T21:26:55;3.83;;;1.73;;
21663;SDS011;10993;52.510;13.456;2022-09-09T21:31:55;9.57;;;4.13;;
21663;SDS011;10993;52.510;13.456;2022-09-09T21:36:56;8.25;;;2.78;;
21663;SDS011;10993;52.510;13.456;2022-09-09T21:41:58;6.13;;;2.45;;
21663;SDS011;10993;52.510;13.456;2022-09-09T21:46:59;8.75;;;2.47;;
21663;SDS011;10993;52.510;13.456;2022-09-09T21:52:00;3.27;;;1.77;;
21663;SDS011;10993;52.510;13.456;2022-09-09T21:57:03;3.28;;;1.25;;
21663;SDS011;10993;52.510;13.456;2022-09-09T22:02:03;3.20;;;1.73;;
21663;SDS011;10993;52.510;13.456;2022-09-09T22:07:04;3.60;;;1.63;;
21663;SDS011;10993;52.510;13.456;2022-09-09T22:12:07;3.05;;;1.40;;
21663;SDS011;10993;52.510;13.456;2022-09-09T22:17:07;4.07;;;1.45;;
21663;SDS011;10993;52.510;13.456;2022-09-09T22:22:07;5.50;;;1.50;;
21663;SDS011;10993;52.510;13.456;2022-09-09T22:27:09;5.35;;;1.35;;
21663;SDS011;10993;52.510;13.456;2022-09-09T22:32:11;3.38;;;1.42;;
21663;SDS011;10993;52.510;13.456;2022-09-09T22:37:11;4.95;;;1.92;;
21663;SDS011;10993;52.510;13.456;2022-09-09T22:42:13;4.32;;;2.15;;
21663;SDS011;10993;52.510;13.456;2022-09-09T22:47:14;5.90;;;2.17;;
21663;SDS011;10993;52.510;13.456;2022-09-09T22:52:14;4.35;;;2.25;;
21663;SDS011;10993;52.510;13.456;2022-09-09T22:57:16;6.13;;;2.85;;
21663;SDS011;10993;52.510;13.456;2022-09-09T23:02:16;6.40;;;2.83;;
21663;SDS011;10993;52.510;13.456;2022-09-09T23:07:19;4.20;;;2.00;;
21663;SDS011;10993;52.510;13.456;2022-09-09T23:12:23;2.50;;;1.17;;
21663;SDS011;10993;52.510;13.456;2022-09-09T23:17:24;5.63;;;1.63;;
21663;SDS011;10993;52.510;13.456;2022-09-09T23:22:25;10.48;;;5.53;;
21663;SDS011;10993;52.510;13.456;2022-09-09T23:27:27;5.53;;;3.47;;
21663;SDS011;10993;52.510;13.456;2022-09-09T23:32:28;5.95;;;3.20;;
21663;SDS011;10993;52.510;13.456;2022-09-09T23:37:30;5.68;;;3.33;;
21663;SDS011;10993;52.510;13.456;2022-09-09T23:42:32;3.25;;;1.77;;
21663;SDS011;10993;52.510;13.456;2022-09-09T23:47:32;3.10;;;1.85;;
21663;SDS011;10993;52.510;13.456;2022-09-09T23:52:33;4.90;;;2.42;;
21663;SDS011;10993;52.510;13.456;2022-09-09T23:57:35;5.30;;;2.10;;
